Time;durP1;ratioP1;P1;durP2;ratioP2;P2;SDS_P1;SDS_P2;PMS_P1;PMS_P2;Temp;Humidity;BMP_temperature;BMP_pressure;BME280_temperature;BME280_humidity;BME280_pressure;Samples;Min_cycle;Max_cycle;Signal;HPM_P1;HPM_P2
2022/03/27 00:01:26;;;;;;;21.33;14.65;;;;;;;12.49;58.09;102279.22;4977175;28;20030;-89
2022/03/27 00:03:54;;;;;;;20.77;15.05;;;;;;;12.50;58.42;102288.94;4997600;28;20388;-89
2022/03/27 00:06:19;;;;;;;22.58;14.95;;;;;;;12.45;58.37;102289.75;4981106;28;20033;-89
2022/03/27 00:08:45;;;;;;;21.02;14.55;;;;;;;12.45;58.08;102287.13;4981219;28;20038;-89
2022/03/27 00:11:26;;;;;;;20.38;14.13;;;;;;;12.42;58.16;102287.13;4978259;28;20520;-89
2022/03/27 00:13:52;;;;;;;17.95;13.82;;;;;;;12.40;58.13;102287.94;4983316;28;20144;-90
2022/03/27 00:16:17;;;;;;;19.50;14.63;;;;;;;12.32;57.88;102290.53;4998671;28;20025;-89
2022/03/27 00:18:42;;;;;;;22.65;15.98;;;;;;;12.34;58.28;102293.22;4998062;28;20052;-89
2022/03/27 00:21:08;;;;;;;18.65;14.45;;;;;;;12.34;58.51;102298.50;4998865;28;20030;-89
2022/03/27 00:23:34;;;;;;;18.80;14.48;;;;;;;12.31;58.59;102302.00;4971310;28;20504;-89
2022/03/27 00:25:59;;;;;;;17.65;12.98;;;;;;;12.27;58.14;102297.56;4980702;28;20018;-89
2022/03/27 00:28:32;;;;;;;18.80;14.45;;;;;;;12.28;58.63;102296.69;4980832;28;20026;-89
2022/03/27 00:31:05;;;;;;;17.85;13.15;;;;;;;12.26;58.46;102306.34;4981489;28;20026;-89
2022/03/27 00:33:30;;;;;;;19.20;13.40;;;;;;;12.22;58.45;102299.25;4981322;28;20121;-88
2022/03/27 00:35:56;;;;;;;19.65;13.68;;;;;;;12.22;58.56;102308.09;4996773;28;20481;-88
2022/03/27 00:38:22;;;;;;;18.45;13.40;;;;;;;12.20;58.47;102301.88;4996981;28;20027;-88
2022/03/27 00:40:49;;;;;;;18.48;14.02;;;;;;;12.17;58.76;102301.88;4980599;28;20121;-88
2022/03/27 00:43:15;;;;;;;19.15;13.73;;;;;;;12.14;58.35;102305.34;4981085;28;20029;-88
2022/03/27 00:45:40;;;;;;;19.13;13.48;;;;;;;12.14;58.79;102302.69;4993101;28;20109;-89
2022/03/27 00:48:06;;;;;;;21.85;13.27;;;;;;;12.10;58.56;102306.19;4996923;28;20455;-88
2022/03/27 00:50:31;;;;;;;18.23;14.00;;;;;;;12.07;58.63;102300.84;4996592;28;20667;-88
2022/03/27 00:52:57;;;;;;;17.70;12.38;;;;;;;12.05;58.58;102289.34;4989213;28;20060;-88
2022/03/27 00:55:23;;;;;;;18.25;14.18;;;;;;;12.04;58.54;102290.25;4982037;28;20023;-88
2022/03/27 00:57:48;;;;;;;19.33;13.27;;;;;;;12.01;58.74;102285.78;4996374;28;20030;-88
2022/03/27 01:00:37;;;;;;;17.25;12.73;;;;;;;12.01;58.74;102295.50;4993608;28;20536;-88
2022/03/27 01:03:04;;;;;;;15.88;12.90;;;;;;;11.93;59.04;102301.56;4993697;28;20121;-89
2022/03/27 01:05:32;;;;;;;16.70;13.20;;;;;;;11.96;59.02;102306.00;4976889;28;20022;-89
2022/03/27 01:08:01;;;;;;;19.90;14.18;;;;;;;11.90;58.99;102298.88;4976508;28;20034;-88
2022/03/27 01:10:27;;;;;;;16.67;12.68;;;;;;;11.87;58.62;102288.28;4977670;28;20031;-88
2022/03/27 01:12:52;;;;;;;18.58;13.23;;;;;;;11.89;59.08;102302.41;4977361;28;20505;-89
2022/03/27 01:15:31;;;;;;;19.77;13.57;;;;;;;11.89;59.02;102306.81;4961249;28;20027;-90
2022/03/27 01:17:57;;;;;;;16.55;13.05;;;;;;;11.86;58.98;102299.72;4963164;28;20096;-89
2022/03/27 01:20:29;;;;;;;19.17;12.82;;;;;;;11.83;58.91;102302.31;4980525;28;20117;-89
2022/03/27 01:22:55;;;;;;;17.42;13.38;;;;;;;11.83;59.45;102302.31;4980617;28;20430;-90
2022/03/27 01:25:21;;;;;;;19.77;13.30;;;;;;;11.81;59.59;102298.78;4980950;28;20089;-90
2022/03/27 01:27:46;;;;;;;20.08;13.80;;;;;;;11.78;59.11;102298.75;4980394;28;20062;-90
2022/03/27 01:30:12;;;;;;;19.95;12.80;;;;;;;11.75;59.47;102288.13;4979782;28;20104;-91
2022/03/27 01:32:37;;;;;;;20.17;13.30;;;;;;;11.75;59.59;102294.31;4979747;28;20030;-91
2022/03/27 01:35:03;;;;;;;18.02;12.93;;;;;;;11.72;59.36;102294.28;4980273;28;20022;-90
2022/03/27 01:37:28;;;;;;;18.00;12.88;;;;;;;11.67;59.65;102285.38;4996433;28;20435;-90
2022/03/27 01:39:54;;;;;;;16.27;11.77;;;;;;;11.65;59.77;102284.50;4992963;28;20027;-90
2022/03/27 01:42:19;;;;;;;15.18;11.90;;;;;;;11.68;59.64;102292.47;4994492;28;20019;-89
2022/03/27 01:44:45;;;;;;;17.13;12.55;;;;;;;11.66;59.82;102287.16;4994629;28;20031;-90
2022/03/27 01:47:10;;;;;;;17.73;13.18;;;;;;;11.63;59.62;102280.94;4993917;28;20038;-88
2022/03/27 01:49:35;;;;;;;15.73;11.35;;;;;;;11.55;59.75;102275.56;4993605;28;20061;-90
2022/03/27 01:52:01;;;;;;;20.25;12.80;;;;;;;11.60;59.34;102284.44;4994384;28;20027;-90
2022/03/27 01:54:26;;;;;;;18.33;12.48;;;;;;;11.55;60.04;102273.78;4977648;28;20033;-90
2022/03/27 01:56:52;;;;;;;15.35;11.95;;;;;;;11.49;59.33;102275.47;4977998;28;20023;-89
2022/03/27 01:59:20;;;;;;;17.95;12.90;;;;;;;11.45;59.39;102273.66;4994887;28;20046;-89
2022/03/27 02:01:46;;;;;;;15.50;11.85;;;;;;;11.53;59.35;102287.84;4982142;28;20050;-90
2022/03/27 02:04:11;;;;;;;15.23;11.45;;;;;;;11.50;59.70;102282.53;4981930;28;20500;-90
2022/03/27 02:06:37;;;;;;;16.35;12.27;;;;;;;11.42;59.63;102269.25;4979448;28;20038;-89
2022/03/27 02:09:02;;;;;;;15.13;11.80;;;;;;;11.38;59.41;102270.06;4976617;28;20549;-89
2022/03/27 02:11:28;;;;;;;15.35;11.55;;;;;;;11.45;59.87;102287.78;4993548;28;20051;-89
2022/03/27 02:13:53;;;;;;;13.27;10.68;;;;;;;11.35;59.69;102263.00;4977440;28;20027;-90
2022/03/27 02:16:19;;;;;;;15.77;11.68;;;;;;;11.37;59.84;102269.16;4992626;28;20058;-90
2022/03/27 02:18:44;;;;;;;15.93;12.02;;;;;;;11.31;59.62;102261.19;4991683;28;20023;-90
2022/03/27 02:21:10;;;;;;;18.42;11.95;;;;;;;11.38;59.46;102289.47;4980015;28;20081;-90
2022/03/27 02:23:35;;;;;;;16.33;11.35;;;;;;;11.37;60.28;102292.06;4979672;28;20161;-90
2022/03/27 02:26:00;;;;;;;15.13;11.23;;;;;;;11.29;59.85;102279.66;4995984;28;20214;-89
2022/03/27 02:28:26;;;;;;;13.75;11.35;;;;;;;11.32;59.79;102291.09;4995775;28;20026;-90
2022/03/27 02:30:52;;;;;;;14.55;10.35;;;;;;;11.25;59.73;102276.94;4979430;28;20037;-90
2022/03/27 02:33:17;;;;;;;15.32;11.00;;;;;;;11.24;59.77;102280.44;4979700;28;20030;-90
2022/03/27 02:35:43;;;;;;;14.77;11.25;;;;;;;11.23;59.95;102283.94;4980090;28;20400;-90
2022/03/27 02:38:08;;;;;;;14.80;10.82;;;;;;;11.24;59.63;102291.88;4995682;28;20086;-90
2022/03/27 02:40:34;;;;;;;15.98;10.00;;;;;;;11.24;60.16;102291.88;4979804;28;20030;-90
2022/03/27 02:43:02;;;;;;;14.00;10.38;;;;;;;11.13;59.68;102278.53;4992026;28;20027;-91
2022/03/27 02:45:29;;;;;;;13.43;10.30;;;;;;;11.20;60.37;102294.47;4977175;28;20022;-91
2022/03/27 02:47:55;;;;;;;15.20;11.90;;;;;;;11.17;59.88;102290.03;4978874;28;20026;-89
2022/03/27 02:50:20;;;;;;;13.68;11.30;;;;;;;11.12;59.78;102281.16;4982139;28;20018;-90
2022/03/27 02:52:46;;;;;;;15.68;11.00;;;;;;;11.05;59.73;102280.19;4996054;28;20018;-90
2022/03/27 02:55:12;;;;;;;13.57;10.88;;;;;;;11.10;60.06;102294.34;4995725;28;20026;-90
2022/03/27 02:57:37;;;;;;;17.92;11.55;;;;;;;11.10;60.18;102294.34;4974246;28;20026;-89
2022/03/27 03:00:05;;;;;;;13.23;10.43;;;;;;;11.04;59.87;102299.53;4991554;28;20038;-89
2022/03/27 03:02:30;;;;;;;17.50;11.68;;;;;;;11.04;60.14;102291.63;4976920;28;20045;-90
2022/03/27 03:04:56;;;;;;;13.63;10.48;;;;;;;11.02;60.26;102295.97;4977721;28;20022;-90
2022/03/27 03:07:23;;;;;;;13.18;10.45;;;;;;;11.02;60.00;102301.25;4976591;28;20023;-89
2022/03/27 03:09:49;;;;;;;13.82;9.73;;;;;;;10.98;60.13;102294.16;4977646;28;20018;-89
2022/03/27 03:12:14;;;;;;;15.07;10.35;;;;;;;10.94;59.82;102293.19;4975353;28;20492;-90
2022/03/27 03:14:40;;;;;;;13.88;10.65;;;;;;;10.97;59.93;102295.91;4994179;28;20077;-90
2022/03/27 03:17:07;;;;;;;18.40;11.13;;;;;;;10.93;60.25;102294.06;4979251;28;20118;-90
2022/03/27 03:19:33;;;;;;;15.50;10.68;;;;;;;10.95;60.00;102304.66;4994897;28;20498;-90
2022/03/27 03:21:58;;;;;;;14.13;10.63;;;;;;;10.93;59.95;102301.13;4965485;28;20015;-90
2022/03/27 03:24:25;;;;;;;12.30;10.48;;;;;;;10.88;60.12;102301.91;4978320;28;20094;-90
2022/03/27 03:26:51;;;;;;;12.77;10.70;;;;;;;10.86;60.20;102298.38;4995007;28;20061;-90
2022/03/27 03:29:16;;;;;;;14.60;10.80;;;;;;;10.87;60.01;102302.78;4982461;28;20026;-90
2022/03/27 03:31:41;;;;;;;13.32;10.45;;;;;;;10.82;60.09;102291.28;4977850;28;20022;-90
2022/03/27 03:34:07;;;;;;;16.08;10.85;;;;;;;10.79;60.48;102293.88;4994514;28;20026;-89
2022/03/27 03:36:32;;;;;;;14.77;10.75;;;;;;;10.82;60.34;102306.22;4994572;28;20023;-90
2022/03/27 03:38:57;;;;;;;14.20;10.48;;;;;;;10.79;60.49;102301.78;4978529;28;20038;-90
2022/03/27 03:41:23;;;;;;;14.52;10.25;;;;;;;10.76;60.65;102301.72;4992210;28;20424;-90
2022/03/27 03:43:49;;;;;;;14.30;10.63;;;;;;;10.76;60.43;102309.66;4994909;28;20033;-89
2022/03/27 03:46:14;;;;;;;14.65;10.27;;;;;;;10.64;60.38;102291.88;4991171;28;20031;-89
2022/03/27 03:48:40;;;;;;;12.98;10.07;;;;;;;10.73;60.48;102310.47;4993190;28;20030;-90
2022/03/27 03:51:05;;;;;;;12.90;9.52;;;;;;;10.70;60.18;102309.56;4990229;28;20033;-90
2022/03/27 03:53:31;;;;;;;14.18;9.60;;;;;;;10.62;60.37;102297.13;4976557;28;20416;-90
2022/03/27 03:55:57;;;;;;;13.70;10.05;;;;;;;10.69;60.51;102307.75;4994424;28;20085;-91
2022/03/27 03:58:23;;;;;;;12.15;9.68;;;;;;;10.65;60.50;102315.66;4977985;28;20010;-90
2022/03/27 04:00:50;;;;;;;13.13;9.23;;;;;;;10.64;60.28;102320.91;4977282;28;20049;-89
2022/03/27 04:03:16;;;;;;;13.63;10.27;;;;;;;10.62;60.47;102318.22;4976496;28;20033;-89
2022/03/27 04:05:41;;;;;;;14.88;10.57;;;;;;;10.59;60.89;102312.00;4973778;28;20026;-89
2022/03/27 04:08:07;;;;;;;12.57;10.05;;;;;;;10.49;60.55;102300.41;4993680;28;20041;-89
2022/03/27 04:10:32;;;;;;;15.05;10.15;;;;;;;10.54;60.87;102314.59;5010460;28;20026;-90
2022/03/27 04:12:57;;;;;;;12.38;9.90;;;;;;;10.53;61.04;102323.34;4993423;28;20034;-90
2022/03/27 04:15:23;;;;;;;16.00;10.27;;;;;;;10.52;60.71;102317.19;4978180;28;20435;-90
2022/03/27 04:17:54;;;;;;;13.00;10.68;;;;;;;10.51;60.95;102320.66;4994533;28;20362;-90
2022/03/27 04:20:19;;;;;;;13.93;10.27;;;;;;;10.47;60.88;102318.84;4979275;28;20030;-91
2022/03/27 04:22:45;;;;;;;14.15;10.55;;;;;;;10.47;60.92;102323.25;4972596;28;20117;-90
2022/03/27 04:25:12;;;;;;;14.05;9.77;;;;;;;10.46;60.98;102326.72;4969611;28;20078;-90
2022/03/27 04:27:37;;;;;;;13.40;10.23;;;;;;;10.42;61.14;102316.94;4968316;28;20023;-90
2022/03/27 04:30:07;;;;;;;13.10;9.50;;;;;;;10.43;60.99;102327.53;4977739;28;20022;-90
2022/03/27 04:32:32;;;;;;;13.80;10.73;;;;;;;10.39;61.13;102333.59;4984942;28;20015;-89
2022/03/27 04:34:57;;;;;;;14.10;11.00;;;;;;;10.37;60.56;102330.94;4994420;28;20034;-91
2022/03/27 04:37:23;;;;;;;15.13;10.38;;;;;;;10.35;61.02;102329.13;4995141;28;20018;-90
2022/03/27 04:39:48;;;;;;;15.27;11.38;;;;;;;10.32;60.87;102332.63;4976289;28;20036;-90
2022/03/27 04:42:13;;;;;;;15.68;10.73;;;;;;;10.31;60.95;102336.13;4979311;28;20448;-90
2022/03/27 04:44:39;;;;;;;15.38;11.10;;;;;;;10.25;60.78;102334.25;4998010;28;20026;-90
2022/03/27 04:47:06;;;;;;;15.88;10.88;;;;;;;10.26;61.06;102328.13;4997840;28;20109;-90
2022/03/27 04:49:32;;;;;;;12.82;10.80;;;;;;;10.24;61.03;102327.19;4997780;28;20026;-90
2022/03/27 04:51:58;;;;;;;13.80;10.30;;;;;;;10.20;60.95;102332.38;4995366;28;20053;-90
2022/03/27 04:54:24;;;;;;;14.27;10.98;;;;;;;10.21;61.07;102335.03;4979077;28;20054;-90
2022/03/27 04:56:49;;;;;;;13.23;9.88;;;;;;;10.21;60.82;102326.25;4980498;28;20054;-89
2022/03/27 04:59:14;;;;;;;12.88;10.90;;;;;;;10.18;60.81;102328.81;4978436;28;20648;-90
2022/03/27 05:01:41;;;;;;;15.32;11.32;;;;;;;10.11;60.96;102326.06;4979245;28;20046;-90
2022/03/27 05:04:07;;;;;;;14.32;10.85;;;;;;;10.14;61.27;102331.41;4979726;28;20505;-90
2022/03/27 05:06:32;;;;;;;16.85;11.10;;;;;;;10.11;61.35;102336.59;4994916;28;20138;-91
2022/03/27 05:08:58;;;;;;;13.77;11.05;;;;;;;10.07;60.87;102324.22;4978346;28;20026;-90
2022/03/27 05:11:25;;;;;;;16.10;11.48;;;;;;;10.06;61.19;102330.34;4997488;28;20053;-90
2022/03/27 05:13:50;;;;;;;16.50;11.40;;;;;;;10.06;61.10;102330.34;4982044;28;20022;-91
2022/03/27 05:16:15;;;;;;;14.95;11.25;;;;;;;10.00;61.00;102327.59;4982656;28;20121;-91
2022/03/27 05:18:41;;;;;;;14.05;11.57;;;;;;;9.99;61.21;102331.09;4982024;28;20121;-91
2022/03/27 05:21:06;;;;;;;16.80;12.05;;;;;;;9.97;61.31;102338.97;4999069;28;20029;-91
2022/03/27 05:23:31;;;;;;;18.77;12.30;;;;;;;9.98;61.37;102340.72;4995447;28;20022;-91
2022/03/27 05:25:57;;;;;;;15.27;11.43;;;;;;;9.93;61.49;102336.22;4998388;28;20468;-91
2022/03/27 05:28:22;;;;;;;15.23;11.38;;;;;;;9.90;61.66;102341.47;4996315;28;20037;-91
2022/03/27 05:30:47;;;;;;;15.60;12.13;;;;;;;9.88;61.56;102339.66;4998768;28;20029;-91
2022/03/27 05:33:13;;;;;;;17.73;11.18;;;;;;;9.91;61.35;102343.22;4994886;28;20519;-92
2022/03/27 05:35:40;;;;;;;15.32;10.75;;;;;;;9.86;61.51;102340.50;4970124;28;20034;-91
2022/03/27 05:38:05;;;;;;;15.07;11.63;;;;;;;9.85;61.60;102337.00;5011387;28;20449;-92
2022/03/27 05:40:31;;;;;;;16.10;11.77;;;;;;;9.82;61.81;102329.00;4990064;28;20025;-92
2022/03/27 05:42:56;;;;;;;17.30;11.70;;;;;;;9.78;61.94;102324.53;4977905;28;20018;-92
2022/03/27 05:45:23;;;;;;;16.38;11.85;;;;;;;9.82;61.76;102322.84;4994817;28;20029;-92
2022/03/27 05:47:49;;;;;;;15.88;11.38;;;;;;;9.80;61.90;102330.72;4996124;28;20034;-93
2022/03/27 05:50:16;;;;;;;15.60;11.48;;;;;;;9.77;61.69;102324.50;4978858;28;20030;-92
2022/03/27 05:52:42;;;;;;;18.13;11.55;;;;;;;9.74;61.74;102326.19;4981319;28;20033;-92
2022/03/27 05:55:07;;;;;;;15.23;10.60;;;;;;;9.72;61.62;102316.50;4998683;28;20515;-94
2022/03/27 05:57:33;;;;;;;16.25;11.73;;;;;;;9.73;61.63;102318.25;4991060;28;20077;-90
2022/03/27 06:00:00;;;;;;;15.60;12.00;;;;;;;9.73;61.46;102334.06;4992890;28;20037;-90
2022/03/27 06:02:26;;;;;;;17.90;12.27;;;;;;;9.72;61.25;102327.94;4980333;28;20022;-90
2022/03/27 06:04:51;;;;;;;16.52;11.40;;;;;;;9.69;61.51;102327.88;4998916;28;20216;-91
2022/03/27 06:07:16;;;;;;;16.13;11.95;;;;;;;9.71;61.66;102322.63;4997601;28;20097;-90
2022/03/27 06:09:42;;;;;;;15.80;11.27;;;;;;;9.66;61.30;102332.16;4978724;28;20101;-90
2022/03/27 06:12:08;;;;;;;16.67;11.90;;;;;;;9.68;61.62;102334.00;4994430;28;20022;-91
2022/03/27 06:14:33;;;;;;;15.82;11.98;;;;;;;9.66;61.34;102345.34;4978836;28;20033;-90
2022/03/27 06:16:58;;;;;;;16.25;11.15;;;;;;;9.65;61.23;102343.56;4978317;28;20028;-90
2022/03/27 06:19:24;;;;;;;15.02;11.45;;;;;;;9.58;60.83;102330.28;4994570;28;20057;-89
2022/03/27 06:21:50;;;;;;;13.93;11.07;;;;;;;9.62;60.32;102347.94;4975833;28;20022;-89
2022/03/27 06:24:15;;;;;;;14.95;11.60;;;;;;;9.62;60.09;102347.94;4992253;28;20441;-92
2022/03/27 06:26:41;;;;;;;15.18;11.20;;;;;;;9.63;60.25;102349.69;4973148;28;20023;-91
2022/03/27 06:29:10;;;;;;;15.02;11.02;;;;;;;9.63;60.04;102349.69;4977645;28;20038;-91
2022/03/27 06:31:38;;;;;;;13.50;10.43;;;;;;;9.61;60.53;102343.50;4979158;28;20037;-92
2022/03/27 06:34:09;;;;;;;14.45;11.40;;;;;;;9.62;60.59;102345.28;4979671;28;20489;-92
2022/03/27 06:36:35;;;;;;;17.77;12.40;;;;;;;9.61;60.66;102351.41;4986569;28;20019;-92
2022/03/27 06:39:00;;;;;;;13.20;10.65;;;;;;;9.60;60.50;102349.63;4997221;28;20022;-92
2022/03/27 06:41:26;;;;;;;17.75;11.80;;;;;;;9.60;60.28;102354.91;4981281;28;20476;-93
2022/03/27 06:43:51;;;;;;;13.90;10.43;;;;;;;9.60;60.48;102357.53;4996697;28;20030;-93
2022/03/27 06:46:17;;;;;;;13.32;10.30;;;;;;;9.61;60.20;102355.78;4996583;28;20030;-93
2022/03/27 06:48:44;;;;;;;15.23;10.82;;;;;;;9.60;59.96;102352.25;4996486;28;20073;-92
2022/03/27 06:51:10;;;;;;;16.27;12.27;;;;;;;9.63;60.11;102362.88;4998377;28;20037;-92
2022/03/27 06:53:36;;;;;;;15.00;10.30;;;;;;;9.65;59.62;102356.75;4977460;28;20043;-89
2022/03/27 06:56:02;;;;;;;16.23;11.07;;;;;;;9.67;60.14;102360.31;4994991;28;20034;-93
2022/03/27 06:58:30;;;;;;;15.02;11.30;;;;;;;9.68;59.81;102356.81;5012675;28;20023;-93
2022/03/27 07:03:46;;;;;;;14.43;10.05;;;;;;;9.73;59.33;102355.16;4998472;28;20037;-92
2022/03/27 07:06:52;;;;;;;14.27;10.70;;;;;;;9.76;60.11;102352.59;4995837;28;20031;-93
2022/03/27 07:09:22;;;;;;;14.50;10.32;;;;;;;9.78;60.42;102350.88;4980183;28;20065;-92
2022/03/27 07:11:48;;;;;;;12.05;10.13;;;;;;;9.82;60.31;102344.81;4982809;28;20034;-94
2022/03/27 07:14:13;;;;;;;13.85;10.60;;;;;;;9.83;60.38;102343.06;4983846;28;20006;-94
2022/03/27 07:16:40;;;;;;;15.48;11.02;;;;;;;9.85;60.19;102342.25;4998537;28;20029;-93
2022/03/27 07:19:05;;;;;;;12.55;9.70;;;;;;;9.90;60.05;102347.59;4998147;28;20026;-93
2022/03/27 07:21:30;;;;;;;13.32;9.60;;;;;;;9.93;60.28;102346.78;4982216;28;20131;-94
2022/03/27 07:23:56;;;;;;;13.25;10.20;;;;;;;9.91;60.11;102336.22;4998448;28;20029;-93
2022/03/27 07:26:22;;;;;;;12.05;9.50;;;;;;;9.94;60.07;102332.75;4998028;28;20117;-94
2022/03/27 07:28:48;;;;;;;11.65;8.95;;;;;;;9.97;60.06;102332.81;4982319;28;20153;-91
2022/03/27 07:31:13;;;;;;;14.25;10.27;;;;;;;9.99;60.25;102331.09;4976527;28;20050;-93
2022/03/27 07:33:40;;;;;;;13.88;9.82;;;;;;;10.04;59.88;102324.16;4997160;28;20028;-94
2022/03/27 07:36:05;;;;;;;11.65;9.00;;;;;;;10.14;60.16;102336.66;4983927;28;20026;-93
2022/03/27 07:38:31;;;;;;;11.23;9.27;;;;;;;10.20;60.12;102332.38;4980631;28;20392;-93
2022/03/27 07:40:59;;;;;;;14.63;9.90;;;;;;;10.25;60.13;102325.44;4980070;28;20109;-92
2022/03/27 07:43:25;;;;;;;10.20;8.38;;;;;;;10.21;60.15;102320.97;4998795;28;20026;-93
2022/03/27 07:45:52;;;;;;;10.88;8.30;;;;;;;10.26;60.08;102314.03;4998745;28;20054;-92
2022/03/27 07:48:20;;;;;;;11.02;9.20;;;;;;;10.34;60.26;102322.97;4980630;28;20035;-92
2022/03/27 07:50:56;;;;;;;12.98;9.05;;;;;;;10.53;60.04;102347.06;4981306;28;20030;-92
2022/03/27 07:53:23;;;;;;;11.45;8.25;;;;;;;10.62;59.89;102351.63;4982145;28;20732;-92
2022/03/27 07:55:55;;;;;;;12.77;9.10;;;;;;;10.54;59.93;102319.84;4998212;28;20037;-92
2022/03/27 07:58:20;;;;;;;9.73;8.40;;;;;;;10.75;60.41;102347.47;4997248;28;20026;-91
2022/03/27 08:00:46;;;;;;;13.90;8.57;;;;;;;10.79;59.96;102351.94;4996169;28;20034;-92
2022/03/27 08:03:12;;;;;;;11.55;8.93;;;;;;;10.88;59.69;102346.78;4977453;28;20026;-91
2022/03/27 08:05:37;;;;;;;11.02;9.07;;;;;;;10.98;59.53;102352.25;4960695;28;20122;-92
2022/03/27 08:08:03;;;;;;;11.07;8.95;;;;;;;11.02;59.28;102351.41;4971584;28;20058;-91
2022/03/27 08:10:28;;;;;;;12.20;8.93;;;;;;;11.11;59.85;102353.31;4993482;28;20026;-91
2022/03/27 08:12:54;;;;;;;12.70;9.48;;;;;;;11.21;59.25;102357.00;4977900;28;20117;-91
2022/03/27 08:15:20;;;;;;;10.35;8.57;;;;;;;11.21;59.94;102351.72;4994377;28;20045;-93
2022/03/27 08:17:46;;;;;;;11.23;8.25;;;;;;;11.32;59.57;102358.03;4984250;28;20026;-94
2022/03/27 08:20:12;;;;;;;11.32;8.88;;;;;;;11.38;59.35;102355.50;5003790;28;20033;-94
2022/03/27 08:22:37;;;;;;;14.50;8.90;;;;;;;11.53;59.19;102361.84;5002687;28;20080;-93
2022/03/27 08:25:03;;;;;;;10.98;8.55;;;;;;;11.61;59.03;102357.56;4983347;28;20053;-90
2022/03/27 08:27:31;;;;;;;10.05;8.32;;;;;;;11.68;59.22;102364.69;5000909;28;20054;-90
2022/03/27 08:29:57;;;;;;;11.73;8.85;;;;;;;11.81;58.48;102359.59;5014013;28;20172;-91
2022/03/27 08:32:23;;;;;;;9.80;8.40;;;;;;;11.93;58.26;102359.75;4975543;28;20084;-91
2022/03/27 08:34:48;;;;;;;9.18;7.95;;;;;;;12.05;58.13;102355.47;4995278;28;20022;-91
2022/03/27 08:37:15;;;;;;;10.55;8.50;;;;;;;12.12;58.15;102361.75;4994280;28;20025;-91
2022/03/27 08:39:41;;;;;;;12.05;9.10;;;;;;;12.22;57.95;102362.72;4994962;28;20512;-91
2022/03/27 08:42:07;;;;;;;11.10;8.57;;;;;;;12.28;58.01;102366.31;4977930;28;20030;-92
2022/03/27 08:44:35;;;;;;;9.95;7.57;;;;;;;12.32;57.75;102354.94;4977733;28;20022;-91
2022/03/27 08:47:02;;;;;;;9.25;7.93;;;;;;;12.44;57.87;102362.09;4993595;28;20469;-89
2022/03/27 08:50:13;;;;;;;10.07;8.32;;;;;;;12.55;57.67;102362.22;4981281;28;20538;-90
2022/03/27 08:52:58;;;;;;;9.70;7.95;;;;;;;12.67;57.63;102361.44;4997004;28;20080;-90
2022/03/27 08:55:34;;;;;;;9.40;7.65;;;;;;;12.78;58.03;102363.28;4981596;28;20030;-90
2022/03/27 08:58:00;;;;;;;9.18;7.68;;;;;;;12.90;57.36;102362.53;4998712;28;20030;-91
2022/03/27 09:00:31;;;;;;;9.27;6.95;;;;;;;12.99;57.49;102367.00;4981777;28;20132;-91
2022/03/27 09:03:02;;;;;;;9.30;7.45;;;;;;;13.09;57.26;102376.78;4983668;28;20100;-90
2022/03/27 09:05:28;;;;;;;9.80;7.85;;;;;;;13.15;56.98;102360.94;4981840;28;20023;-91
2022/03/27 09:07:58;;;;;;;8.65;7.50;;;;;;;13.29;56.71;102362.78;4997385;28;20567;-90
2022/03/27 09:10:27;;;;;;;12.48;7.88;;;;;;;13.39;56.62;102367.28;4982175;28;20062;-91
2022/03/27 09:12:53;;;;;;;9.45;7.63;;;;;;;13.47;56.79;102359.34;4998620;28;20117;-91
2022/03/27 09:15:23;;;;;;;9.07;7.47;;;;;;;13.57;56.71;102355.06;4996975;28;20045;-91
2022/03/27 09:18:06;;;;;;;10.40;7.93;;;;;;;13.71;56.30;102366.59;4997640;28;20019;-91
2022/03/27 09:20:40;;;;;;;9.65;7.50;;;;;;;13.80;56.33;102363.09;4996612;28;20484;-91
2022/03/27 09:23:28;;;;;;;7.90;6.85;;;;;;;13.93;56.09;102366.69;4997074;28;20053;-90
2022/03/27 09:25:54;;;;;;;8.10;6.45;;;;;;;14.06;56.13;102364.09;4980413;28;20452;-90
2022/03/27 09:28:36;;;;;;;8.35;7.35;;;;;;;14.15;55.95;102360.59;4995958;28;20029;-89
2022/03/27 09:31:04;;;;;;;9.75;7.35;;;;;;;14.26;55.97;102369.47;4996119;28;20045;-90
2022/03/27 09:33:33;;;;;;;9.32;7.60;;;;;;;14.42;55.63;102373.03;4996381;28;20037;-89
2022/03/27 09:36:08;;;;;;;8.05;7.05;;;;;;;14.55;55.83;102365.09;4995736;28;20030;-90
2022/03/27 09:38:34;;;;;;;10.05;7.70;;;;;;;14.67;55.52;102361.56;4995787;28;20033;-90
2022/03/27 09:41:00;;;;;;;9.40;7.53;;;;;;;14.78;55.59;102364.25;4980167;28;20117;-90
2022/03/27 09:43:25;;;;;;;9.30;6.75;;;;;;;14.86;55.56;102354.50;4980079;28;20058;-90
2022/03/27 09:45:56;;;;;;;7.88;6.63;;;;;;;14.96;55.01;102353.63;5012559;28;20022;-90
2022/03/27 09:48:21;;;;;;;8.30;6.95;;;;;;;15.09;55.48;102348.31;4980315;28;20058;-90
2022/03/27 09:50:46;;;;;;;9.20;6.95;;;;;;;15.16;55.42;102352.72;4995752;28;20141;-90
2022/03/27 09:53:24;;;;;;;7.88;7.03;;;;;;;15.32;55.51;102353.59;4979804;28;20362;-91
2022/03/27 09:55:53;;;;;;;9.30;7.10;;;;;;;15.47;54.84;102359.75;4979551;28;20022;-90
2022/03/27 09:58:45;;;;;;;11.02;6.65;;;;;;;15.56;54.83;102356.16;4995667;28;20023;-89
2022/03/27 10:01:13;;;;;;;8.70;7.25;;;;;;;15.60;54.72;102345.53;4979049;28;20045;-89
2022/03/27 10:03:58;;;;;;;7.30;6.45;;;;;;;15.78;54.34;102343.69;4995144;28;20030;-89
2022/03/27 10:06:37;;;;;;;8.45;6.30;;;;;;;15.92;54.39;102346.28;4994991;28;20029;-91
2022/03/27 10:09:05;;;;;;;7.82;6.97;;;;;;;15.99;54.17;102344.50;4995480;28;20037;-90
2022/03/27 10:11:31;;;;;;;9.60;7.25;;;;;;;16.07;53.92;102333.84;4978777;28;20026;-90
2022/03/27 10:13:57;;;;;;;8.52;6.85;;;;;;;16.15;53.57;102340.00;4978985;28;20030;-91
2022/03/27 10:16:32;;;;;;;8.55;6.85;;;;;;;16.28;54.10;102338.16;4995799;28;20048;-90
2022/03/27 10:19:02;;;;;;;7.90;6.25;;;;;;;16.41;53.98;102328.28;4980211;28;20090;-90
2022/03/27 10:21:28;;;;;;;9.38;6.63;;;;;;;16.52;53.54;102333.53;4979609;28;20025;-91
2022/03/27 10:24:09;;;;;;;7.10;6.20;;;;;;;16.64;53.53;102329.91;4995289;28;20117;-89
2022/03/27 10:26:35;;;;;;;9.27;7.07;;;;;;;16.71;53.50;102322.72;4995173;28;20076;-90
2022/03/27 10:29:01;;;;;;;6.93;6.00;;;;;;;16.84;53.34;102323.50;4979256;28;20398;-91
2022/03/27 10:31:27;;;;;;;6.38;5.75;;;;;;;16.91;53.30;102328.75;4979273;28;20495;-90
2022/03/27 10:33:54;;;;;;;7.82;6.72;;;;;;;17.01;53.11;102323.34;4979128;28;20023;-90
2022/03/27 10:36:29;;;;;;;8.85;6.18;;;;;;;17.07;53.23;102317.13;4979467;28;20054;-90
2022/03/27 10:39:08;;;;;;;7.57;6.53;;;;;;;17.17;53.07;102310.75;4995417;28;20023;-90
2022/03/27 10:41:51;;;;;;;8.18;6.03;;;;;;;17.27;52.97;102304.44;4979851;28;20033;-89
2022/03/27 10:44:28;;;;;;;7.72;6.25;;;;;;;17.34;53.01;102312.38;4979178;28;20065;-90
2022/03/27 10:47:17;;;;;;;6.78;5.75;;;;;;;17.41;52.85;102306.06;4995553;28;20026;-91
2022/03/27 10:50:05;;;;;;;7.22;6.18;;;;;;;17.47;53.07;102305.13;4995146;28;20505;-90
2022/03/27 10:52:36;;;;;;;6.53;5.43;;;;;;;17.60;52.79;102311.19;4994924;28;20132;-90
2022/03/27 10:55:07;;;;;;;6.15;5.45;;;;;;;17.67;52.73;102307.50;4995085;28;20397;-89
2022/03/27 10:57:36;;;;;;;6.65;5.85;;;;;;;17.71;52.42;102303.94;4996186;28;20022;-90
2022/03/27 11:00:05;;;;;;;6.82;5.65;;;;;;;17.70;52.17;102296.81;4979202;28;20030;-90
2022/03/27 11:02:46;;;;;;;7.25;6.18;;;;;;;17.80;52.11;102305.56;4978922;28;20033;-90
2022/03/27 11:05:35;;;;;;;6.93;6.22;;;;;;;17.82;51.76;102302.00;4995416;28;20117;-90
2022/03/27 11:08:18;;;;;;;6.85;5.30;;;;;;;17.86;51.56;102294.81;4995343;28;20046;-91
2022/03/27 11:10:45;;;;;;;7.10;5.50;;;;;;;17.87;51.52;102293.06;4994661;28;20034;-90
2022/03/27 11:13:26;;;;;;;6.03;5.18;;;;;;;17.96;51.07;102292.91;4994172;28;20527;-90
2022/03/27 11:16:18;;;;;;;7.10;5.43;;;;;;;18.04;50.48;102291.00;4994313;28;20026;-89
2022/03/27 11:18:45;;;;;;;6.35;5.47;;;;;;;18.08;50.47;102279.38;4977877;28;20392;-91
2022/03/27 11:21:12;;;;;;;6.15;5.55;;;;;;;18.13;50.98;102282.00;4981773;28;20036;-90